National Weather Service United States Department of Commerce
Click Here for Latest Airport Weather Warnings
 
Latest Huntsville TAF


196
FTUS44 KHUN 290535
TAFHSV
TAF
KHSV 290535Z 2906/3006 00000KT P6SM SCT120
FM291500 22005KT P6SM SCT090 PROB30 2917/2923 4SM -TSRA
OVC040CB
FM300200 VRB03KT P6SM FEW150=

Latest Muscle Shoals TAF


195
FTUS44 KHUN 290535
TAFMSL
TAF
KMSL 290535Z 2906/3006 00000KT P6SM SCT100
FM291300 21007KT P6SM BKN100 PROB30 2917/2923 4SM -TSRA
OVC040CB
FM300200 VRB03KT P6SM FEW150=


Back to Main Huntsville Weather Forecast Office Page